Time;durP1;ratioP1;P1;durP2;ratioP2;P2;SDS_P1;SDS_P2;PMS_P1;PMS_P2;Temp;Humidity;BMP_temperature;BMP_pressure;BME280_temperature;BME280_humidity;BME280_pressure;Samples;Min_cycle;Max_cycle;Signal;HPM_P1;HPM_P2
2022/06/15 00:00:43;;;;;;;;;;;;;;;23.51;47.32;101429.56;2092124;28;815;-57
2022/06/15 00:01:43;;;;;;;;;;;;;;;23.48;46.89;101433.28;2092113;28;899;-57
2022/06/15 00:02:43;;;;;;;;;;;;;;;23.47;47.25;101428.81;2092178;28;797;-57
2022/06/15 00:03:44;;;;;;;;;;;;;;;23.48;47.43;101436.00;2092151;28;838;-57
2022/06/15 00:04:44;;;;;;;;;;;;;;;23.47;47.35;101434.22;2092034;28;981;-57
2022/06/15 00:05:44;;;;;;;;;;;;;;;23.45;47.49;101436.09;2092052;28;827;-56
2022/06/15 00:06:44;;;;;;;;;;;;;;;23.44;46.66;101436.13;2092077;28;886;-57
2022/06/15 00:07:45;;;;;;;;;;;;;;;23.44;47.24;101434.34;2092019;28;965;-57
2022/06/15 00:08:46;;;;;;;;;;;;;;;23.45;46.64;101430.69;2092001;28;1949;-57
2022/06/15 00:09:46;;;;;;;;;;;;;;;23.43;46.93;101432.56;2092006;28;842;-57
2022/06/15 00:10:46;;;;;;;;;;;;;;;23.42;46.62;101435.31;2092034;28;972;-57
2022/06/15 00:11:46;;;;;;;;;;;;;;;23.41;45.93;101431.75;2092174;28;795;-57
2022/06/15 00:12:47;;;;;;;;;;;;;;;23.41;45.59;101436.25;2092036;28;969;-57
2022/06/15 00:13:47;;;;;;;;;;;;;;;23.39;45.32;101433.63;2092045;28;993;-57
2022/06/15 00:14:48;;;;;;;;;;;;;;;23.37;45.49;101432.78;2091967;28;874;-57
2022/06/15 00:15:49;;;;;;;;;;;;;;;23.36;45.38;101431.03;2092076;28;851;-57
2022/06/15 00:16:49;;;;;;;;;;;;;;;23.35;44.90;101440.06;2091981;28;882;-57
2022/06/15 00:17:50;;;;;;;;;;;;;;;23.33;44.55;101432.00;2091935;28;914;-57
2022/06/15 00:18:51;;;;;;;;;;;;;;;23.32;44.57;101438.34;2091954;28;772;-57
2022/06/15 00:19:51;;;;;;;;;;;;;;;23.32;44.25;101435.63;2091941;28;800;-57
2022/06/15 00:20:51;;;;;;;;;;;;;;;23.33;43.48;101434.69;2091906;28;1056;-57
2022/06/15 00:21:51;;;;;;;;;;;;;;;23.31;43.56;101436.56;2091910;28;716;-57
2022/06/15 00:22:52;;;;;;;;;;;;;;;23.33;43.59;101431.13;2091939;28;667;-57
2022/06/15 00:23:52;;;;;;;;;;;;;;;23.31;42.97;101439.28;2091916;28;882;-58
2022/06/15 00:24:52;;;;;;;;;;;;;;;23.30;43.16;101431.25;2091912;28;976;-57
2022/06/15 00:25:53;;;;;;;;;;;;;;;23.28;42.51;101436.69;2091913;28;778;-57
2022/06/15 00:26:53;;;;;;;;;;;;;;;23.29;43.37;101432.16;2091880;28;779;-57
2022/06/15 00:27:53;;;;;;;;;;;;;;;23.29;43.17;101434.88;2091633;28;1174;-57
2022/06/15 00:28:53;;;;;;;;;;;;;;;23.29;43.21;101430.34;2091844;28;1910;-57
2022/06/15 00:29:54;;;;;;;;;;;;;;;23.27;43.11;101432.22;2082943;28;1148;-57
2022/06/15 00:30:54;;;;;;;;;;;;;;;23.26;42.45;101434.97;2083050;28;906;-57
2022/06/15 00:31:54;;;;;;;;;;;;;;;23.26;43.09;101434.97;2091769;28;921;-57
2022/06/15 00:32:54;;;;;;;;;;;;;;;23.27;42.89;101429.50;2092002;28;748;-57
2022/06/15 00:33:54;;;;;;;;;;;;;;;23.26;42.52;101437.69;2091814;28;843;-57
2022/06/15 00:34:54;;;;;;;;;;;;;;;23.23;43.49;101439.56;2091842;28;981;-58
2022/06/15 00:35:59;;;;;;;;;;;;;;;23.21;42.70;101444.09;2091942;28;800;-57
2022/06/15 00:37:01;;;;;;;;;;;;;;;23.24;42.55;101440.47;2091787;28;839;-57
2022/06/15 00:38:01;;;;;;;;;;;;;;;23.21;43.09;101443.22;2091792;28;885;-57
2022/06/15 00:39:03;;;;;;;;;;;;;;;23.21;43.55;101448.63;2091797;28;799;-57
2022/06/15 00:40:04;;;;;;;;;;;;;;;23.23;43.62;101450.38;2091778;28;862;-57
2022/06/15 00:41:06;;;;;;;;;;;;;;;23.21;43.63;101443.22;2091733;28;1202;-57
2022/06/15 00:42:08;;;;;;;;;;;;;;;23.20;43.81;101445.03;2091791;28;796;-57
2022/06/15 00:43:08;;;;;;;;;;;;;;;23.21;43.12;101449.50;2091748;28;796;-57
2022/06/15 00:44:21;;;;;;;;;;;;;;;23.21;43.79;101449.50;2091742;28;1013;-57
2022/06/15 00:45:21;;;;;;;;;;;;;;;23.21;43.19;101454.91;2091747;28;896;-57
2022/06/15 00:46:31;;;;;;;;;;;;;;;23.20;43.20;101447.75;2091736;28;937;-57
2022/06/15 00:47:32;;;;;;;;;;;;;;;23.18;43.64;101446.03;2091737;28;779;-57
2022/06/15 00:48:33;;;;;;;;;;;;;;;23.18;44.06;101444.22;2091692;28;974;-57
2022/06/15 00:49:33;;;;;;;;;;;;;;;23.18;43.93;101441.50;2091642;28;1902;-57
2022/06/15 00:50:34;;;;;;;;;;;;;;;23.17;43.81;101442.44;2091820;28;775;-57
2022/06/15 00:51:36;;;;;;;;;;;;;;;23.18;44.37;101448.75;2091687;28;807;-57
2022/06/15 00:52:54;;;;;;;;;;;;;;;23.18;43.89;101438.81;2091699;28;921;-57
2022/06/15 00:53:56;;;;;;;;;;;;;;;23.18;44.53;101443.34;2091687;28;981;-57
2022/06/15 00:54:56;;;;;;;;;;;;;;;23.19;43.73;101443.28;2091706;28;855;-57
2022/06/15 00:55:56;;;;;;;;;;;;;;;23.17;44.01;101442.44;2091667;28;1020;-57
2022/06/15 00:56:57;;;;;;;;;;;;;;;23.16;44.76;101440.69;2091662;28;873;-57
2022/06/15 00:57:59;;;;;;;;;;;;;;;23.17;44.60;101444.28;2091641;28;1040;-57
2022/06/15 00:59:03;;;;;;;;;;;;;;;23.16;44.69;101440.69;2091651;28;902;-57
2022/06/15 01:00:05;;;;;;;;;;;;;;;23.15;44.91;101438.03;2091651;28;1217;-57
2022/06/15 01:01:05;;;;;;;;;;;;;;;23.15;44.31;101438.91;2091625;28;897;-57
2022/06/15 01:02:06;;;;;;;;;;;;;;;23.14;45.10;101436.28;2091648;28;771;-57
2022/06/15 01:03:10;;;;;;;;;;;;;;;23.14;45.03;101437.16;2091625;28;989;-57
2022/06/15 01:04:11;;;;;;;;;;;;;;;23.13;45.26;101435.38;2091564;28;988;-57
2022/06/15 01:05:22;;;;;;;;;;;;;;;23.12;44.89;101439.00;2082692;28;1017;-57
2022/06/15 01:06:35;;;;;;;;;;;;;;;23.12;44.71;101435.44;2084380;28;858;-57
2022/06/15 01:07:42;;;;;;;;;;;;;;;23.13;44.99;101438.06;2091632;28;790;-57
2022/06/15 01:09:00;;;;;;;;;;;;;;;23.13;45.28;101437.22;2091547;28;1894;-57
2022/06/15 01:10:06;;;;;;;;;;;;;;;23.12;45.37;101436.31;2091581;28;1001;-57
2022/06/15 01:11:25;;;;;;;;;;;;;;;23.13;44.85;101439.91;2091005;28;861;-57
2022/06/15 01:12:31;;;;;;;;;;;;;;;23.13;44.31;101435.38;2091581;28;874;-57
2022/06/15 01:13:31;;;;;;;;;;;;;;;23.10;44.04;101432.78;2091640;28;791;-57
2022/06/15 01:14:43;;;;;;;;;;;;;;;23.11;44.28;101434.53;2091661;28;763;-57
2022/06/15 01:15:46;;;;;;;;;;;;;;;23.11;44.26;101434.53;2091589;28;882;-57
2022/06/15 01:16:46;;;;;;;;;;;;;;;23.11;43.36;101434.53;2091542;28;688;-57
2022/06/15 01:17:56;;;;;;;;;;;;;;;23.09;43.59;101434.63;2091517;28;1060;-57
2022/06/15 01:19:08;;;;;;;;;;;;;;;23.10;43.30;101432.78;2091550;28;902;-57
2022/06/15 01:20:32;;;;;;;;;;;;;;;23.10;43.29;101439.09;2091500;28;858;-57
2022/06/15 01:21:48;;;;;;;;;;;;;;;23.07;43.64;101435.59;2091536;28;854;-57
2022/06/15 01:23:11;;;;;;;;;;;;;;;23.08;43.48;101431.94;2091517;28;823;-57
2022/06/15 01:24:17;;;;;;;;;;;;;;;23.10;43.35;101435.47;2091518;28;815;-57
2022/06/15 01:25:17;;;;;;;;;;;;;;;23.10;43.08;101430.06;2091480;28;924;-57
2022/06/15 01:26:29;;;;;;;;;;;;;;;23.10;43.28;101430.06;2091487;28;787;-57
2022/06/15 01:27:42;;;;;;;;;;;;;;;23.10;42.77;101427.38;2093539;23;1461;-57
2022/06/15 01:28:52;;;;;;;;;;;;;;;23.10;43.19;101430.06;2083210;28;1902;-56
2022/06/15 01:30:05;;;;;;;;;;;;;;;23.10;42.38;101424.66;2083340;28;1103;-57
2022/06/15 01:31:08;;;;;;;;;;;;;;;23.10;43.30;101427.38;2083226;28;850;-57
2022/06/15 01:32:11;;;;;;;;;;;;;;;23.10;42.64;101424.66;2083235;28;759;-57
2022/06/15 01:33:20;;;;;;;;;;;;;;;23.07;42.70;101425.69;2083217;28;977;-57
2022/06/15 01:34:26;;;;;;;;;;;;;;;23.09;43.06;101422.91;2083188;28;918;-57
2022/06/15 01:35:39;;;;;;;;;;;;;;;23.08;43.35;101421.13;2083190;28;890;-57
2022/06/15 01:36:39;;;;;;;;;;;;;;;23.07;43.49;101424.78;2083206;28;977;-57
2022/06/15 01:37:52;;;;;;;;;;;;;;;23.07;43.03;101419.38;2083298;28;791;-57
2022/06/15 01:38:59;;;;;;;;;;;;;;;23.07;43.37;101420.28;2083336;28;725;-56
2022/06/15 01:40:14;;;;;;;;;;;;;;;23.07;43.77;101420.28;2083213;28;855;-57
2022/06/15 01:41:35;;;;;;;;;;;;;;;23.07;43.53;101419.38;2083191;28;1388;-57
2022/06/15 01:42:38;;;;;;;;;;;;;;;23.07;43.71;101424.78;2083263;28;956;-57
2022/06/15 01:43:49;;;;;;;;;;;;;;;23.07;43.66;101417.56;2083151;28;997;-57
2022/06/15 01:45:00;;;;;;;;;;;;;;;23.09;43.67;101421.09;2083178;28;792;-57
2022/06/15 01:46:01;;;;;;;;;;;;;;;23.09;43.33;101414.81;2083071;28;1929;-57
2022/06/15 01:47:02;;;;;;;;;;;;;;;23.08;43.55;101410.34;2083314;28;989;-57
2022/06/15 01:48:05;;;;;;;;;;;;;;;23.07;43.34;101422.97;2083117;28;1037;-57
2022/06/15 01:49:06;;;;;;;;;;;;;;;23.07;43.74;101420.28;2083045;28;1919;-57
2022/06/15 01:50:11;;;;;;;;;;;;;;;23.08;43.62;101422.03;2083106;28;796;-57
2022/06/15 01:51:16;;;;;;;;;;;;;;;23.07;43.95;101422.97;2083106;28;1037;-57
2022/06/15 01:52:18;;;;;;;;;;;;;;;23.08;43.53;101421.13;2083064;28;1076;-56
2022/06/15 01:53:19;;;;;;;;;;;;;;;23.08;43.49;101421.13;2083213;28;954;-57
2022/06/15 01:54:26;;;;;;;;;;;;;;;23.09;43.68;101422.91;2083113;28;1010;-56
2022/06/15 01:55:35;;;;;;;;;;;;;;;23.09;44.36;101417.50;2083106;28;981;-57
2022/06/15 01:56:43;;;;;;;;;;;;;;;23.07;44.23;101424.78;2083154;28;776;-57
2022/06/15 01:57:46;;;;;;;;;;;;;;;23.06;44.62;101418.50;2083089;28;1005;-57
2022/06/15 01:58:48;;;;;;;;;;;;;;;23.06;44.04;101425.72;2083099;28;982;-57
2022/06/15 01:59:58;;;;;;;;;;;;;;;23.06;44.45;101423.91;2083064;28;937;-57
2022/06/15 02:01:06;;;;;;;;;;;;;;;23.07;44.15;101422.97;2083091;28;859;-57
2022/06/15 02:02:17;;;;;;;;;;;;;;;23.06;44.01;101417.59;2083147;28;792;-56
2022/06/15 02:03:25;;;;;;;;;;;;;;;23.06;44.89;101426.63;2083083;28;890;-57
2022/06/15 02:04:30;;;;;;;;;;;;;;;23.07;44.41;101419.38;2083125;28;827;-57
2022/06/15 02:05:33;;;;;;;;;;;;;;;23.06;44.45;101426.63;2083049;28;1006;-57
2022/06/15 02:06:51;;;;;;;;;;;;;;;23.06;45.02;101423.00;2083045;28;970;-57
2022/06/15 02:07:54;;;;;;;;;;;;;;;23.07;45.07;101420.28;2083068;28;977;-56
2022/06/15 02:09:00;;;;;;;;;;;;;;;23.07;44.89;101424.78;2082953;28;1890;-57
2022/06/15 02:10:06;;;;;;;;;;;;;;;23.07;44.62;101422.06;2083084;28;815;-57
2022/06/15 02:11:09;;;;;;;;;;;;;;;23.07;45.00;101427.47;2083101;28;898;-57
2022/06/15 02:12:10;;;;;;;;;;;;;;;23.07;44.57;101427.47;2083036;28;756;-57
2022/06/15 02:13:25;;;;;;;;;;;;;;;23.05;45.21;101427.53;2083166;28;692;-57
2022/06/15 02:14:27;;;;;;;;;;;;;;;23.05;44.68;101432.94;2083080;28;930;-57
2022/06/15 02:15:29;;;;;;;;;;;;;;;23.04;45.30;101431.19;2083012;28;989;-57
2022/06/15 02:16:32;;;;;;;;;;;;;;;23.06;45.81;101431.13;2083032;28;769;-57
2022/06/15 02:17:34;;;;;;;;;;;;;;;23.06;46.20;101433.81;2083061;28;779;-57
2022/06/15 02:18:35;;;;;;;;;;;;;;;23.06;47.15;101434.72;2082993;28;993;-57
2022/06/15 02:19:39;;;;;;;;;;;;;;;23.06;47.47;101441.94;2082328;28;939;-57
2022/06/15 02:20:43;;;;;;;;;;;;;;;23.05;48.16;101438.34;2082464;28;863;-57
2022/06/15 02:21:44;;;;;;;;;;;;;;;23.07;48.13;101441.00;2082994;28;848;-56
2022/06/15 02:22:46;;;;;;;;;;;;;;;23.05;48.40;101446.47;2084595;28;945;-57
2022/06/15 02:23:49;;;;;;;;;;;;;;;23.06;48.14;101452.72;2084583;28;1052;-56
2022/06/15 02:24:52;;;;;;;;;;;;;;;23.05;48.46;101445.56;2084546;28;1005;-56
2022/06/15 02:25:53;;;;;;;;;;;;;;;23.03;48.53;101444.72;2084558;28;887;-56
2022/06/15 02:26:54;;;;;;;;;;;;;;;23.02;48.10;101451.06;2084595;28;930;-57
2022/06/15 02:27:54;;;;;;;;;;;;;;;23.03;48.02;101450.13;2084433;28;1216;-57
2022/06/15 02:28:56;;;;;;;;;;;;;;;23.04;48.68;101452.81;2084495;28;1914;-57
2022/06/15 02:30:01;;;;;;;;;;;;;;;23.04;48.74;101455.50;2084555;28;985;-57
2022/06/15 02:31:01;;;;;;;;;;;;;;;23.03;48.07;101460.94;2084682;28;973;-57
2022/06/15 02:32:01;;;;;;;;;;;;;;;23.03;48.13;101467.25;2084565;28;788;-56
2022/06/15 02:33:07;;;;;;;;;;;;;;;23.04;48.17;101462.72;2084530;28;1033;-57
2022/06/15 02:34:08;;;;;;;;;;;;;;;23.05;48.53;101456.38;2084530;28;981;-57
2022/06/15 02:35:08;;;;;;;;;;;;;;;23.05;48.48;101457.28;2083861;28;1685;-57
2022/06/15 02:36:08;;;;;;;;;;;;;;;23.04;48.13;101460.91;2083950;28;1175;-57
2022/06/15 02:37:09;;;;;;;;;;;;;;;23.03;48.56;101461.84;2084550;28;1156;-57
2022/06/15 02:38:09;;;;;;;;;;;;;;;23.03;48.99;101461.84;2084536;28;1028;-57
2022/06/15 02:39:10;;;;;;;;;;;;;;;23.02;49.12;101459.19;2084459;28;871;-57
2022/06/15 02:40:13;;;;;;;;;;;;;;;23.01;48.51;101462.81;2084456;28;1056;-57
2022/06/15 02:41:13;;;;;;;;;;;;;;;23.01;49.15;101466.41;2084503;28;803;-57
2022/06/15 02:42:31;;;;;;;;;;;;;;;23.00;49.08;101466.44;2084465;28;938;-57
2022/06/15 02:43:31;;;;;;;;;;;;;;;22.98;49.18;101465.63;2084483;28;800;-57
2022/06/15 02:44:34;;;;;;;;;;;;;;;22.99;48.57;101465.59;2084466;28;775;-57
2022/06/15 02:45:36;;;;;;;;;;;;;;;22.98;48.46;101469.22;2084458;28;778;-57
2022/06/15 02:46:40;;;;;;;;;;;;;;;22.99;48.06;101461.97;2084432;28;993;-57
2022/06/15 02:47:41;;;;;;;;;;;;;;;22.97;48.61;101461.16;2084478;28;824;-57
2022/06/15 02:48:42;;;;;;;;;;;;;;;22.95;48.62;101464.81;2084404;28;1886;-57
2022/06/15 02:49:44;;;;;;;;;;;;;;;22.94;48.54;101468.44;2084534;28;1044;-57
2022/06/15 02:50:57;;;;;;;;;;;;;;;22.93;48.32;101466.69;2084388;28;779;-57
2022/06/15 02:52:04;;;;;;;;;;;;;;;22.92;47.25;101466.72;2084430;28;996;-57
2022/06/15 02:53:06;;;;;;;;;;;;;;;22.90;47.00;101461.38;2084403;28;805;-57
2022/06/15 02:54:32;;;;;;;;;;;;;;;22.89;46.82;101465.03;2084346;28;1040;-57
2022/06/15 02:55:33;;;;;;;;;;;;;;;22.90;46.57;101466.78;2084387;28;1040;-57
2022/06/15 02:56:34;;;;;;;;;;;;;;;22.89;45.56;101467.72;2084307;28;854;-57
2022/06/15 02:57:42;;;;;;;;;;;;;;;22.89;45.52;101470.41;2084320;28;918;-57
2022/06/15 02:58:44;;;;;;;;;;;;;;;22.90;45.49;101469.50;2084234;28;1235;-57
2022/06/15 02:59:47;;;;;;;;;;;;;;;22.90;44.84;101430.78;2084460;28;882;-57
2022/06/15 03:00:47;;;;;;;;;;;;;;;22.89;44.47;101418.19;2084312;28;792;-57
2022/06/15 03:01:48;;;;;;;;;;;;;;;22.88;44.50;101419.13;2084345;28;784;-57
2022/06/15 03:02:48;;;;;;;;;;;;;;;22.87;44.71;101423.66;2084375;28;822;-56
2022/06/15 03:03:48;;;;;;;;;;;;;;;22.87;44.23;101422.75;2084278;28;989;-57
2022/06/15 03:04:49;;;;;;;;;;;;;;;22.87;44.17;101418.25;2084365;28;764;-56
2022/06/15 03:05:49;;;;;;;;;;;;;;;22.87;43.65;101411.97;2084307;28;874;-56
2022/06/15 03:06:50;;;;;;;;;;;;;;;22.86;43.15;101432.72;2084305;28;846;-57
2022/06/15 03:07:50;;;;;;;;;;;;;;;22.88;43.34;101516.38;2084285;28;894;-56
2022/06/15 03:08:50;;;;;;;;;;;;;;;22.89;43.53;101485.72;2084229;28;1957;-57
2022/06/15 03:09:50;;;;;;;;;;;;;;;22.88;43.26;101475.84;2084286;28;784;-57
2022/06/15 03:10:51;;;;;;;;;;;;;;;22.88;43.21;101468.66;2084226;28;827;-57
2022/06/15 03:11:52;;;;;;;;;;;;;;;22.88;43.21;101457.84;2083571;28;1165;-57
2022/06/15 03:12:52;;;;;;;;;;;;;;;22.88;42.83;101457.84;2075526;28;816;-57
2022/06/15 03:13:52;;;;;;;;;;;;;;;22.87;43.57;101469.59;2083508;28;905;-56
2022/06/15 03:14:53;;;;;;;;;;;;;;;22.88;43.68;101465.06;2084222;28;965;-56
2022/06/15 03:15:56;;;;;;;;;;;;;;;22.87;43.43;101464.19;2084236;28;744;-57
2022/06/15 03:16:57;;;;;;;;;;;;;;;22.87;43.83;101466.00;2084174;28;977;-57
2022/06/15 03:17:57;;;;;;;;;;;;;;;22.88;43.19;101462.34;2084306;28;914;-57
2022/06/15 03:18:57;;;;;;;;;;;;;;;22.88;43.76;101467.75;2084210;28;839;-56
2022/06/15 03:19:57;;;;;;;;;;;;;;;22.86;44.11;101462.41;2084184;28;993;-56
2022/06/15 03:20:58;;;;;;;;;;;;;;;22.87;43.40;101464.19;2084178;28;658;-57
2022/06/15 03:21:58;;;;;;;;;;;;;;;22.86;43.99;101464.22;2084154;28;1028;-57
2022/06/15 03:22:59;;;;;;;;;;;;;;;22.86;43.57;101464.22;2084175;28;815;-57
2022/06/15 03:23:59;;;;;;;;;;;;;;;22.86;43.96;101464.22;2084164;28;965;-56
2022/06/15 03:24:59;;;;;;;;;;;;;;;22.87;43.89;101469.59;2084163;28;823;-57
2022/06/15 03:26:00;;;;;;;;;;;;;;;22.89;44.31;101466.81;2084145;28;906;-57
2022/06/15 03:27:00;;;;;;;;;;;;;;;22.88;43.85;101465.06;2083273;28;1130;-57
2022/06/15 03:28:01;;;;;;;;;;;;;;;22.87;43.76;101461.47;2083549;28;780;-57
2022/06/15 03:29:01;;;;;;;;;;;;;;;22.86;43.77;101461.53;2084167;28;1918;-56
2022/06/15 03:30:04;;;;;;;;;;;;;;;22.88;44.11;101468.66;2083417;28;929;-56
2022/06/15 03:31:04;;;;;;;;;;;;;;;22.88;44.61;101465.06;2083546;28;858;-57
2022/06/15 03:32:04;;;;;;;;;;;;;;;22.87;44.21;101456.09;2084130;28;843;-57
2022/06/15 03:33:05;;;;;;;;;;;;;;;22.86;44.66;101458.81;2084054;28;673;-57
2022/06/15 03:34:05;;;;;;;;;;;;;;;22.87;44.92;101461.47;2083377;28;862;-56
2022/06/15 03:35:06;;;;;;;;;;;;;;;22.85;44.64;101457.94;2084056;28;843;-57
2022/06/15 03:36:06;;;;;;;;;;;;;;;22.86;44.97;101458.81;2083388;28;1028;-57
2022/06/15 03:37:07;;;;;;;;;;;;;;;22.85;44.91;101466.06;2083478;28;811;-57
2022/06/15 03:38:08;;;;;;;;;;;;;;;22.85;44.94;101466.06;2084098;28;863;-57
2022/06/15 03:39:09;;;;;;;;;;;;;;;22.88;44.63;101467.75;2084122;28;786;-57
2022/06/15 03:40:10;;;;;;;;;;;;;;;22.85;44.65;101459.75;2084095;28;831;-56
2022/06/15 03:41:10;;;;;;;;;;;;;;;22.86;43.72;101467.81;2083997;28;993;-57
2022/06/15 03:42:13;;;;;;;;;;;;;;;22.87;44.17;101469.59;2084005;28;868;-57
2022/06/15 03:43:14;;;;;;;;;;;;;;;22.87;43.65;101466.00;2083956;28;1001;-57
2022/06/15 03:44:14;;;;;;;;;;;;;;;22.87;43.42;101466.00;2083975;28;840;-57
2022/06/15 03:45:14;;;;;;;;;;;;;;;22.85;44.12;101468.75;2083939;28;962;-57
2022/06/15 03:46:15;;;;;;;;;;;;;;;22.85;43.08;101463.34;2083935;28;854;-57
2022/06/15 03:47:17;;;;;;;;;;;;;;;22.87;43.86;101471.38;2083963;28;1037;-57
2022/06/15 03:48:17;;;;;;;;;;;;;;;22.87;43.72;101472.28;2084065;28;835;-57
2022/06/15 03:49:17;;;;;;;;;;;;;;;22.85;42.99;101471.47;2083883;28;2017;-57
2022/06/15 03:50:17;;;;;;;;;;;;;;;22.87;43.48;101466.88;2083939;28;855;-57
2022/06/15 03:51:17;;;;;;;;;;;;;;;22.87;43.58;101471.38;2083968;28;823;-57
2022/06/15 03:52:19;;;;;;;;;;;;;;;22.87;43.71;101469.59;2083955;28;875;-57
2022/06/15 03:53:19;;;;;;;;;;;;;;;22.87;43.84;101469.59;2083950;28;934;-57
2022/06/15 03:54:19;;;;;;;;;;;;;;;22.88;43.48;101476.75;2083939;28;1048;-57
2022/06/15 03:55:20;;;;;;;;;;;;;;;22.88;43.24;101474.06;2084040;28;835;-57
2022/06/15 03:56:20;;;;;;;;;;;;;;;22.87;43.56;101483.09;2083919;28;859;-56
2022/06/15 03:57:21;;;;;;;;;;;;;;;22.88;43.15;101478.56;2083229;28;907;-56
2022/06/15 03:58:22;;;;;;;;;;;;;;;22.89;43.11;101481.22;2083286;28;886;-57
2022/06/15 03:59:22;;;;;;;;;;;;;;;22.88;43.57;101484.88;2083924;28;893;-57
2022/06/15 04:00:23;;;;;;;;;;;;;;;22.90;43.34;101484.78;2083832;28;993;-57
2022/06/15 04:01:23;;;;;;;;;;;;;;;22.88;43.89;101481.25;2083850;28;1053;-56
2022/06/15 04:02:23;;;;;;;;;;;;;;;23.62;41.93;101476.03;2083809;28;981;-57
2022/06/15 04:03:23;;;;;;;;;;;;;;;24.90;39.35;101482.03;2083843;28;1020;-56
2022/06/15 04:04:23;;;;;;;;;;;;;;;25.74;37.88;101480.19;2083879;28;819;-56
2022/06/15 04:05:27;;;;;;;;;;;;;;;26.32;35.91;101480.28;2083858;28;871;-55
2022/06/15 04:06:27;;;;;;;;;;;;;;;26.75;35.01;101478.16;2083150;28;875;-55
2022/06/15 04:08:46;;;;;;;;;;;;;;;27.69;33.85;101484.31;2083815;28;1885;-56
2022/06/15 04:09:46;;;;;;;;;;;;;;;28.05;33.08;101488.75;2083821;28;851;-56
2022/06/15 04:10:46;;;;;;;;;;;;;;;28.33;32.26;101476.31;2083783;28;1002;-56
2022/06/15 04:11:59;;;;;;;;;;;;;;;28.84;31.75;101481.59;2083789;28;1155;-56
2022/06/15 04:13:00;;;;;;;;;;;;;;;29.24;30.78;101481.06;2083934;28;784;-56
2022/06/15 04:14:00;;;;;;;;;;;;;;;29.51;30.41;101483.09;2083799;28;831;-57
2022/06/15 04:15:00;;;;;;;;;;;;;;;29.63;30.03;101468.69;2083767;28;945;-56
2022/06/15 04:16:02;;;;;;;;;;;;;;;29.99;29.45;101474.69;2083746;28;993;-55
2022/06/15 04:17:03;;;;;;;;;;;;;;;30.25;29.00;101470.25;2083699;28;1053;-56
2022/06/15 04:18:03;;;;;;;;;;;;;;;30.25;28.92;101474.88;2083051;28;1081;-56
2022/06/15 04:19:06;;;;;;;;;;;;;;;30.18;28.98;101482.56;2083136;28;890;-56
2022/06/15 04:21:26;;;;;;;;;;;;;;;30.83;28.63;101481.06;2083768;28;725;-56
2022/06/15 04:22:26;;;;;;;;;;;;;;;31.24;27.59;101476.50;2083708;28;784;-56
2022/06/15 04:23:26;;;;;;;;;;;;;;;31.14;28.25;101475.34;2083693;28;851;-56
2022/06/15 04:24:27;;;;;;;;;;;;;;;31.41;27.38;101477.19;2083688;28;792;-56
2022/06/15 04:25:28;;;;;;;;;;;;;;;31.50;27.03;101485.63;2083001;28;1472;-56
2022/06/15 04:26:28;;;;;;;;;;;;;;;31.63;27.11;101482.03;2083073;28;1001;-56
2022/06/15 04:27:30;;;;;;;;;;;;;;;31.82;26.83;101480.72;2083550;28;1326;-56
2022/06/15 04:28:31;;;;;;;;;;;;;;;31.64;27.02;101486.50;2083687;28;768;-56
2022/06/15 04:29:32;;;;;;;;;;;;;;;31.60;27.50;101484.97;2083584;28;1917;-56
2022/06/15 04:30:32;;;;;;;;;;;;;;;31.83;26.87;101482.47;2083601;28;1040;-56
2022/06/15 04:31:32;;;;;;;;;;;;;;;32.09;26.23;101483.31;2083577;28;997;-56
2022/06/15 04:32:32;;;;;;;;;;;;;;;31.92;26.90;101484.53;2083608;28;899;-56
2022/06/15 04:33:33;;;;;;;;;;;;;;;32.21;26.26;101478.81;2083574;28;990;-56
2022/06/15 04:34:33;;;;;;;;;;;;;;;32.08;26.90;101485.19;2083594;28;974;-56
2022/06/15 04:35:33;;;;;;;;;;;;;;;32.05;26.95;101477.19;2083595;28;647;-56
2022/06/15 04:36:33;;;;;;;;;;;;;;;32.17;26.73;101475.41;2083564;28;1033;-56
2022/06/15 04:37:33;;;;;;;;;;;;;;;32.28;26.84;101476.47;2083505;28;1184;-56
2022/06/15 04:38:33;;;;;;;;;;;;;;;32.40;26.38;101471.97;2083597;28;755;-56
2022/06/15 04:39:33;;;;;;;;;;;;;;;32.18;26.66;101479.91;2083561;28;980;-56
2022/06/15 04:40:34;;;;;;;;;;;;;;;32.32;27.00;101478.94;2083561;28;980;-56
2022/06/15 04:41:36;;;;;;;;;;;;;;;32.55;27.14;101473.56;2083693;28;795;-56
2022/06/15 04:42:36;;;;;;;;;;;;;;;32.37;27.68;101476.72;2083562;28;799;-56
2022/06/15 04:43:36;;;;;;;;;;;;;;;32.50;27.67;101473.94;2083546;28;682;-56
2022/06/15 04:44:36;;;;;;;;;;;;;;;32.79;27.55;101476.31;2083545;28;780;-56
2022/06/15 04:45:36;;;;;;;;;;;;;;;32.91;27.22;101474.56;2082688;28;969;-56
2022/06/15 04:46:37;;;;;;;;;;;;;;;33.11;27.08;101477.59;2083392;28;791;-56
2022/06/15 04:47:37;;;;;;;;;;;;;;;33.14;27.18;101482.84;2083515;28;788;-56
2022/06/15 04:48:37;;;;;;;;;;;;;;;33.04;27.05;101477.22;2083474;28;835;-56
2022/06/15 04:49:37;;;;;;;;;;;;;;;33.09;27.12;101479.59;2083420;28;1902;-56
2022/06/15 04:50:38;;;;;;;;;;;;;;;32.99;27.06;101482.19;2083469;28;1029;-56
2022/06/15 04:51:39;;;;;;;;;;;;;;;33.07;27.21;101484.31;2083465;28;823;-56
2022/06/15 04:52:41;;;;;;;;;;;;;;;33.02;27.24;101481.94;2083497;28;803;-56
2022/06/15 04:53:41;;;;;;;;;;;;;;;33.37;26.59;101482.94;2083484;28;878;-56
2022/06/15 04:54:41;;;;;;;;;;;;;;;33.36;26.65;101489.41;2083463;28;882;-56
2022/06/15 04:55:41;;;;;;;;;;;;;;;33.55;26.09;101456.81;2083468;28;981;-56
2022/06/15 04:56:42;;;;;;;;;;;;;;;33.41;26.24;101482.59;2083529;28;783;-56
2022/06/15 04:57:42;;;;;;;;;;;;;;;33.16;26.72;101486.34;2082692;28;1199;-57
2022/06/15 04:58:43;;;;;;;;;;;;;;;33.66;26.16;101490.75;2082765;28;966;-56
2022/06/15 04:59:43;;;;;;;;;;;;;;;33.19;26.79;101488.88;2083360;28;877;-56
2022/06/15 05:00:46;;;;;;;;;;;;;;;33.47;26.34;101484.00;2082429;28;1718;-56
2022/06/15 05:01:46;;;;;;;;;;;;;;;33.52;26.16;101490.00;2082032;28;1675;-56
2022/06/15 05:02:46;;;;;;;;;;;;;;;33.75;25.74;101492.75;2082776;28;839;-56
2022/06/15 05:03:46;;;;;;;;;;;;;;;33.82;25.36;101484.91;2083380;28;843;-56
2022/06/15 05:04:46;;;;;;;;;;;;;;;33.75;25.72;101481.78;2083202;28;835;-56
2022/06/15 05:05:46;;;;;;;;;;;;;;;33.67;25.96;101485.13;2083232;28;835;-56
2022/06/15 05:06:47;;;;;;;;;;;;;;;33.56;26.15;101488.72;2083239;28;989;-56
2022/06/15 05:07:47;;;;;;;;;;;;;;;33.61;26.24;101488.38;2083102;28;1575;-55
2022/06/15 05:08:47;;;;;;;;;;;;;;;33.40;26.18;101491.81;2080617;28;1890;-56
2022/06/15 05:09:49;;;;;;;;;;;;;;;33.72;26.04;101484.75;2083381;28;942;-56
2022/06/15 05:10:49;;;;;;;;;;;;;;;33.73;26.32;101485.66;2083309;28;960;-56
2022/06/15 05:11:49;;;;;;;;;;;;;;;33.79;25.91;101479.66;2083229;28;867;-56
2022/06/15 05:12:49;;;;;;;;;;;;;;;34.02;25.71;101477.81;2083291;28;827;-56
2022/06/15 05:13:49;;;;;;;;;;;;;;;34.02;25.65;101480.56;2083230;28;851;-56
2022/06/15 05:14:50;;;;;;;;;;;;;;;33.98;25.60;101479.06;2083217;28;1044;-56
2022/06/15 05:15:50;;;;;;;;;;;;;;;34.38;24.84;101474.91;2083219;28;839;-55
2022/06/15 05:16:51;;;;;;;;;;;;;;;34.07;25.26;101478.31;2083267;28;850;-56
2022/06/15 05:17:51;;;;;;;;;;;;;;;33.90;25.48;101474.16;2083279;28;852;-56
2022/06/15 05:18:52;;;;;;;;;;;;;;;33.77;25.89;101471.53;2083234;28;788;-56
2022/06/15 05:19:52;;;;;;;;;;;;;;;34.07;25.27;101475.56;2083271;28;783;-56
2022/06/15 05:20:52;;;;;;;;;;;;;;;34.16;25.02;101479.44;2082280;28;1641;-56
2022/06/15 05:21:52;;;;;;;;;;;;;;;34.19;25.18;101473.69;2083130;28;832;-56
2022/06/15 05:22:53;;;;;;;;;;;;;;;34.13;25.10;101475.06;2083165;28;859;-56
2022/06/15 05:23:54;;;;;;;;;;;;;;;34.18;25.09;101485.69;2083200;28;815;-56
2022/06/15 05:24:54;;;;;;;;;;;;;;;34.04;25.17;101481.31;2083180;28;901;-56
2022/06/15 05:25:57;;;;;;;;;;;;;;;34.35;24.78;101484.28;2083117;28;1033;-56
2022/06/15 05:26:57;;;;;;;;;;;;;;;34.39;24.78;101469.25;2083080;28;1170;-56
2022/06/15 05:27:57;;;;;;;;;;;;;;;34.68;24.21;101484.34;2083123;28;777;-56
2022/06/15 05:28:57;;;;;;;;;;;;;;;34.44;24.51;101482.66;2083045;28;1967;-56
2022/06/15 05:29:58;;;;;;;;;;;;;;;34.39;24.69;101491.25;2083135;28;997;-56
2022/06/15 05:31:01;;;;;;;;;;;;;;;34.40;24.56;101493.00;2083138;28;915;-56
2022/06/15 05:32:03;;;;;;;;;;;;;;;34.14;25.04;101479.56;2082098;28;1452;-56